createdAt,value
2018-04-22T00:02:20.083Z,13.90
2018-04-22T00:04:49.377Z,13.70
2018-04-22T00:07:18.151Z,13.70
2018-04-22T00:09:46.120Z,13.70
2018-04-22T00:12:14.434Z,13.70
2018-04-22T00:14:42.778Z,13.70
2018-04-22T00:17:10.933Z,13.60
2018-04-22T00:19:38.913Z,13.60
2018-04-22T00:22:07.180Z,13.50
2018-04-22T00:24:35.651Z,13.50
2018-04-22T00:27:05.094Z,13.40
2018-04-22T00:29:34.373Z,13.30
2018-04-22T00:32:02.756Z,13.30
2018-04-22T00:34:31.250Z,13.30
2018-04-22T00:37:00.633Z,13.20
2018-04-22T00:39:29.119Z,13.20
2018-04-22T00:41:57.294Z,13.10
2018-04-22T00:44:26.690Z,13.10
2018-04-22T00:46:55.795Z,13.10
2018-04-22T00:49:24.449Z,13.10
2018-04-22T00:51:52.854Z,13.10
2018-04-22T00:54:22.770Z,13.00
2018-04-22T00:56:50.941Z,13.00
2018-04-22T00:59:19.319Z,12.90
2018-04-22T01:01:47.573Z,12.80
2018-04-22T01:04:15.665Z,12.80
2018-04-22T01:06:43.933Z,12.80
2018-04-22T01:09:12.198Z,12.70
2018-04-22T01:11:40.378Z,12.60
2018-04-22T01:14:09.420Z,12.60
2018-04-22T01:16:38.392Z,12.60
2018-04-22T01:19:06.443Z,12.50
2018-04-22T01:21:34.613Z,12.50
2018-04-22T01:24:06.044Z,12.40
2018-04-22T01:26:33.940Z,12.20
2018-04-22T01:29:02.936Z,12.20
2018-04-22T01:31:31.177Z,12.10
2018-04-22T01:33:59.384Z,12.10
2018-04-22T01:36:28.173Z,12.10
2018-04-22T01:38:56.954Z,12.10
2018-04-22T01:41:26.057Z,12.00
2018-04-22T01:43:54.428Z,12.00
2018-04-22T01:46:23.423Z,11.90
2018-04-22T01:48:52.316Z,11.80
2018-04-22T01:51:21.489Z,11.90
2018-04-22T01:53:49.369Z,11.80
2018-04-22T01:56:18.877Z,11.70
2018-04-22T01:58:47.264Z,11.70
2018-04-22T02:01:17.449Z,11.70
2018-04-22T02:03:45.858Z,11.60
2018-04-22T02:06:14.851Z,11.60
2018-04-22T02:08:43.209Z,11.60
2018-04-22T02:11:11.715Z,11.40
2018-04-22T02:13:40.840Z,11.40
2018-04-22T02:16:11.045Z,11.50
2018-04-22T02:18:39.922Z,11.40
2018-04-22T02:21:08.196Z,11.40
2018-04-22T02:23:36.979Z,11.40
2018-04-22T02:26:05.352Z,11.40
2018-04-22T02:28:34.452Z,11.40
2018-04-22T02:31:03.751Z,11.40
2018-04-22T02:33:32.140Z,11.30
2018-04-22T02:36:01.734Z,11.20
2018-04-22T02:38:31.139Z,11.30
2018-04-22T02:41:01.157Z,11.20
2018-04-22T02:43:29.343Z,11.20
2018-04-22T02:45:58.420Z,11.20
2018-04-22T02:48:26.592Z,11.10
2018-04-22T02:50:55.306Z,11.00
2018-04-22T02:53:24.993Z,11.00
2018-04-22T02:55:53.980Z,10.90
2018-04-22T02:58:22.558Z,10.90
2018-04-22T03:00:50.740Z,10.80
2018-04-22T03:03:19.193Z,10.80
2018-04-22T03:05:48.194Z,10.80
2018-04-22T03:08:16.490Z,10.80
2018-04-22T03:10:45.698Z,10.80
2018-04-22T03:13:13.955Z,10.80
2018-04-22T03:15:44.692Z,10.80
2018-04-22T03:18:13.482Z,10.80
2018-04-22T03:20:42.345Z,10.70
2018-04-22T03:23:10.648Z,10.70
2018-04-22T03:25:39.965Z,10.70
2018-04-22T03:28:08.838Z,10.70
2018-04-22T03:30:36.806Z,10.70
2018-04-22T03:33:04.769Z,10.60
2018-04-22T03:35:33.334Z,10.60
2018-04-22T03:38:01.406Z,10.60
2018-04-22T03:40:29.603Z,10.60
2018-04-22T03:42:57.770Z,10.50
2018-04-22T03:45:27.524Z,10.50
2018-04-22T03:47:56.372Z,10.40
2018-04-22T03:50:25.541Z,10.50
2018-04-22T03:52:53.742Z,10.50
2018-04-22T03:55:22.034Z,10.50
2018-04-22T03:57:50.091Z,10.50
2018-04-22T04:00:18.274Z,10.50
2018-04-22T04:02:46.437Z,10.50
2018-04-22T04:05:16.145Z,10.50
2018-04-22T04:07:44.220Z,10.50
2018-04-22T04:10:13.110Z,10.50
2018-04-22T04:12:40.984Z,10.50
2018-04-22T04:15:10.127Z,10.50
2018-04-22T04:17:38.447Z,10.60
2018-04-22T04:20:18.398Z,10.60
2018-04-22T04:22:46.472Z,10.60
2018-04-22T04:28:16.995Z,10.70
2018-04-22T04:30:44.994Z,10.70
2018-04-22T04:33:13.144Z,10.70
2018-04-22T04:35:41.226Z,10.80
2018-04-22T04:38:09.380Z,10.80
2018-04-22T04:40:37.681Z,10.90
2018-04-22T04:43:05.862Z,11.00
2018-04-22T04:45:33.723Z,11.00
2018-04-22T04:48:01.884Z,11.10
2018-04-22T04:50:29.860Z,11.20
2018-04-22T04:52:58.247Z,11.30
2018-04-22T04:55:26.727Z,11.30
2018-04-22T04:57:54.795Z,11.40
2018-04-22T05:00:23.683Z,11.60
2018-04-22T05:02:52.364Z,11.50
2018-04-22T05:05:23.303Z,11.70
2018-04-22T05:07:51.573Z,11.80
2018-04-22T05:10:20.042Z,11.90
2018-04-22T05:12:49.975Z,12.00
2018-04-22T05:15:18.050Z,12.00
2018-04-22T05:17:46.104Z,12.10
2018-04-22T05:20:14.289Z,12.20
2018-04-22T05:22:42.568Z,12.40
2018-04-22T05:25:10.735Z,12.50
2018-04-22T05:27:38.706Z,12.50
2018-04-22T05:30:06.900Z,12.70
2018-04-22T05:32:35.574Z,12.80
2018-04-22T05:35:03.747Z,12.80
2018-04-22T05:37:31.712Z,12.90
2018-04-22T05:39:59.977Z,13.00
2018-04-22T05:42:28.155Z,13.10
2018-04-22T05:44:57.319Z,13.20
2018-04-22T05:47:25.579Z,13.30
2018-04-22T05:49:54.392Z,13.40
2018-04-22T05:52:22.385Z,13.50
2018-04-22T05:54:50.473Z,13.70
2018-04-22T05:57:18.638Z,13.90
2018-04-22T05:59:46.902Z,14.20
2018-04-22T06:02:15.339Z,14.60
2018-04-22T06:04:43.566Z,14.90
2018-04-22T06:07:11.738Z,15.30
2018-04-22T06:09:39.815Z,16.00
2018-04-22T06:12:08.803Z,16.50
2018-04-22T06:14:36.878Z,17.10
2018-04-22T06:17:05.151Z,17.70
2018-04-22T06:19:33.318Z,18.20
2018-04-22T06:22:01.467Z,18.70
2018-04-22T06:24:29.568Z,19.00
2018-04-22T06:26:58.031Z,19.50
2018-04-22T06:29:25.994Z,19.70
2018-04-22T06:31:54.909Z,20.00
2018-04-22T06:34:23.772Z,20.90
2018-04-22T06:36:51.773Z,20.90
2018-04-22T06:39:19.830Z,21.30
2018-04-22T06:41:48.114Z,22.00
2018-04-22T06:44:16.506Z,22.30
2018-04-22T06:46:45.377Z,23.10
2018-04-22T06:49:13.454Z,23.00
2018-04-22T06:51:41.530Z,23.10
2018-04-22T06:54:09.596Z,23.10
2018-04-22T06:56:38.794Z,23.50
2018-04-22T06:59:06.861Z,24.40
2018-04-22T07:01:35.131Z,24.60
2018-04-22T07:04:03.380Z,24.80
2018-04-22T07:06:31.690Z,24.90
2018-04-22T07:08:59.886Z,25.00
2018-04-22T07:11:28.954Z,25.70
2018-04-22T07:13:57.107Z,25.70
2018-04-22T07:16:25.350Z,26.00
2018-04-22T07:18:54.292Z,26.90
2018-04-22T07:21:22.168Z,27.60
2018-04-22T07:23:51.939Z,27.80
2018-04-22T07:26:19.943Z,27.90
2018-04-22T07:28:47.909Z,27.60
2018-04-22T07:31:15.963Z,28.10
2018-04-22T07:33:44.054Z,28.90
2018-04-22T07:36:11.916Z,29.80
2018-04-22T07:38:40.310Z,30.70
2018-04-22T07:41:08.463Z,30.80
2018-04-22T07:43:37.584Z,30.50
2018-04-22T07:46:06.350Z,29.90
2018-04-22T07:48:36.268Z,29.30
2018-04-22T07:51:04.649Z,29.30
2018-04-22T07:53:33.733Z,29.80
2018-04-22T07:56:02.216Z,30.10
2018-04-22T07:58:31.005Z,30.70
2018-04-22T08:00:59.690Z,30.80
2018-04-22T08:03:27.855Z,31.20
2018-04-22T08:05:56.182Z,31.60
2018-04-22T08:08:24.796Z,31.90
2018-04-22T08:10:52.907Z,31.70
2018-04-22T08:13:20.984Z,32.20
2018-04-22T08:15:49.757Z,33.20
2018-04-22T08:18:18.135Z,33.20
2018-04-22T08:20:46.649Z,33.40
2018-04-22T08:23:14.793Z,33.20
2018-04-22T08:25:42.961Z,33.30
2018-04-22T08:28:11.031Z,33.80
2018-04-22T08:30:39.510Z,34.40
2018-04-22T08:33:07.694Z,34.80
2018-04-22T08:35:35.780Z,34.70
2018-04-22T08:38:04.661Z,34.40
2018-04-22T08:40:34.673Z,35.50
2018-04-22T08:43:02.743Z,35.40
2018-04-22T08:45:30.812Z,34.70
2018-04-22T08:47:58.987Z,35.40
2018-04-22T08:50:27.380Z,36.20
2018-04-22T08:52:57.177Z,35.90
2018-04-22T08:55:30.316Z,35.90
2018-04-22T08:57:59.064Z,35.50
2018-04-22T09:00:28.014Z,36.10
2018-04-22T09:03:11.840Z,36.10
2018-04-22T09:05:40.462Z,36.60
2018-04-22T09:08:08.636Z,36.40
2018-04-22T09:10:36.930Z,36.20
2018-04-22T09:13:05.604Z,35.90
2018-04-22T09:15:33.774Z,35.90
2018-04-22T09:18:02.365Z,36.10
2018-04-22T09:20:31.151Z,36.50
2018-04-22T09:22:59.322Z,36.60
2018-04-22T09:25:27.281Z,37.40
2018-04-22T09:27:55.376Z,36.70
2018-04-22T09:30:24.216Z,36.90
2018-04-22T09:32:52.321Z,36.90
2018-04-22T09:35:21.279Z,38.30
2018-04-22T09:37:49.689Z,38.20
2018-04-22T09:40:17.960Z,39.30
2018-04-22T09:42:45.927Z,39.40
2018-04-22T09:45:13.800Z,39.80
2018-04-22T09:47:42.071Z,39.60
2018-04-22T09:50:10.143Z,39.50
2018-04-22T09:52:38.314Z,40.30
2018-04-22T09:55:06.494Z,39.90
2018-04-22T09:57:34.471Z,40.40
2018-04-22T10:00:03.147Z,40.40
2018-04-22T10:02:33.375Z,39.70
2018-04-22T10:05:08.485Z,39.50
2018-04-22T10:07:36.472Z,39.80
2018-04-22T10:10:06.181Z,39.30
2018-04-22T10:12:34.444Z,39.30
2018-04-22T10:15:03.662Z,39.40
2018-04-22T10:17:31.742Z,40.00
2018-04-22T10:20:00.661Z,39.80
2018-04-22T10:22:29.302Z,39.80
2018-04-22T10:24:57.876Z,40.10
2018-04-22T10:27:26.123Z,40.70
2018-04-22T10:29:54.647Z,41.30
2018-04-22T10:32:22.924Z,40.60
2018-04-22T10:34:50.978Z,40.40
2018-04-22T10:37:19.250Z,40.80
2018-04-22T10:39:47.334Z,41.20
2018-04-22T10:42:15.516Z,40.40
2018-04-22T10:44:43.784Z,39.70
2018-04-22T10:47:12.137Z,39.60
2018-04-22T10:49:40.752Z,41.20
2018-04-22T10:52:09.006Z,40.40
2018-04-22T10:54:37.409Z,40.90
2018-04-22T10:57:05.865Z,41.30
2018-04-22T10:59:35.298Z,40.40
2018-04-22T11:02:04.496Z,41.70
2018-04-22T11:04:32.851Z,41.60
2018-04-22T11:07:01.553Z,42.60
2018-04-22T11:09:31.549Z,41.80
2018-04-22T11:12:00.244Z,41.80
2018-04-22T11:14:28.530Z,40.00
2018-04-22T11:16:57.108Z,38.90
2018-04-22T11:19:25.591Z,38.70
2018-04-22T11:21:54.842Z,38.30
2018-04-22T11:24:23.670Z,38.80
2018-04-22T11:26:51.751Z,39.10
2018-04-22T11:29:19.826Z,38.20
2018-04-22T11:31:48.759Z,37.60
2018-04-22T11:34:16.884Z,38.30
2018-04-22T11:36:46.485Z,38.00
2018-04-22T11:39:15.174Z,38.10
2018-04-22T11:41:43.505Z,38.60
2018-04-22T11:44:11.940Z,38.60
2018-04-22T11:46:39.899Z,38.20
2018-04-22T11:49:08.985Z,38.80
2018-04-22T11:51:37.586Z,40.00
2018-04-22T11:54:06.845Z,40.90
2018-04-22T11:56:35.446Z,40.90
2018-04-22T11:59:03.646Z,41.20
2018-04-22T12:01:31.801Z,41.00
2018-04-22T12:04:00.901Z,41.90
2018-04-22T12:06:29.117Z,41.90
2018-04-22T12:08:57.245Z,42.30
2018-04-22T12:11:25.524Z,41.80
2018-04-22T12:13:54.015Z,41.60
2018-04-22T12:16:22.392Z,41.10
2018-04-22T12:18:51.272Z,40.40
2018-04-22T12:21:19.583Z,39.40
2018-04-22T12:23:48.815Z,38.90
2018-04-22T12:26:17.868Z,38.80
2018-04-22T12:28:47.050Z,39.20
2018-04-22T12:31:15.371Z,39.10
2018-04-22T12:33:43.470Z,39.90
2018-04-22T12:36:11.879Z,40.40
2018-04-22T12:38:41.278Z,41.10
2018-04-22T12:41:09.388Z,41.10
2018-04-22T12:43:37.727Z,41.30
2018-04-22T12:46:06.358Z,41.30
2018-04-22T12:48:35.002Z,40.70
2018-04-22T12:51:03.503Z,40.40
2018-04-22T12:53:32.781Z,39.70
2018-04-22T12:56:01.024Z,40.20
2018-04-22T12:58:29.218Z,40.30
2018-04-22T13:00:58.399Z,40.30
2018-04-22T13:03:26.700Z,39.90
2018-04-22T13:05:56.005Z,39.30
2018-04-22T13:08:25.089Z,39.40
2018-04-22T13:10:54.492Z,39.90
2018-04-22T13:13:22.687Z,39.90
2018-04-22T13:15:52.001Z,39.40
2018-04-22T13:18:20.238Z,39.40
2018-04-22T13:20:48.323Z,39.50
2018-04-22T13:23:16.494Z,39.00
2018-04-22T13:25:45.134Z,40.10
2018-04-22T13:28:13.174Z,39.30
2018-04-22T13:30:41.622Z,39.50
2018-04-22T13:33:10.166Z,38.60
2018-04-22T13:35:38.474Z,38.30
2018-04-22T13:38:06.940Z,38.80
2018-04-22T13:40:35.231Z,38.70
2018-04-22T13:43:03.210Z,38.30
2018-04-22T13:45:31.621Z,37.80
2018-04-22T13:48:00.261Z,39.10
2018-04-22T13:50:28.473Z,40.20
2018-04-22T13:52:57.634Z,39.10
2018-04-22T13:55:26.012Z,39.00
2018-04-22T13:57:54.584Z,38.80
2018-04-22T14:00:23.274Z,39.00
2018-04-22T14:02:52.397Z,39.20
2018-04-22T14:05:21.671Z,40.00
2018-04-22T14:07:49.848Z,39.90
2018-04-22T14:10:18.226Z,39.50
2018-04-22T14:12:46.457Z,39.90
2018-04-22T14:15:14.818Z,40.10
2018-04-22T14:17:43.289Z,40.30
2018-04-22T14:20:12.359Z,40.40
2018-04-22T14:22:40.734Z,40.50
2018-04-22T14:25:09.019Z,40.20
2018-04-22T14:27:37.303Z,40.40
2018-04-22T14:30:06.580Z,39.20
2018-04-22T14:32:34.859Z,39.10
2018-04-22T14:35:03.128Z,39.00
2018-04-22T14:37:31.317Z,39.00
2018-04-22T14:39:59.764Z,39.40
2018-04-22T14:42:28.997Z,39.30
2018-04-22T14:45:08.931Z,39.00
2018-04-22T14:47:38.950Z,38.70
2018-04-22T14:50:07.959Z,38.10
2018-04-22T14:52:36.948Z,37.60
2018-04-22T14:55:05.304Z,37.50
2018-04-22T14:57:33.544Z,36.90
2018-04-22T15:00:02.069Z,36.60
2018-04-22T15:02:30.047Z,37.10
2018-04-22T15:04:58.517Z,37.20
2018-04-22T15:07:28.194Z,37.80
2018-04-22T15:09:56.423Z,37.80
2018-04-22T15:12:26.603Z,37.50
2018-04-22T15:14:55.318Z,37.40
2018-04-22T15:17:23.485Z,38.10
2018-04-22T15:19:51.849Z,38.10
2018-04-22T15:22:20.377Z,38.10
2018-04-22T15:24:49.333Z,37.20
2018-04-22T15:27:17.584Z,37.10
2018-04-22T15:29:45.894Z,37.30
2018-04-22T15:32:14.070Z,36.70
2018-04-22T15:34:44.072Z,35.60
2018-04-22T15:37:12.197Z,35.60
2018-04-22T15:39:40.593Z,35.40
2018-04-22T15:42:09.219Z,35.00
2018-04-22T15:44:38.874Z,34.40
2018-04-22T15:47:07.101Z,33.90
2018-04-22T15:49:35.729Z,33.10
2018-04-22T15:52:04.268Z,32.30
2018-04-22T15:54:32.782Z,31.30
2018-04-22T15:57:01.722Z,29.20
2018-04-22T15:59:30.013Z,29.10
2018-04-22T16:01:58.343Z,28.40
2018-04-22T16:04:27.200Z,28.10
2018-04-22T16:06:56.381Z,27.90
2018-04-22T16:09:25.007Z,27.90
2018-04-22T16:11:53.330Z,27.90
2018-04-22T16:14:21.434Z,28.00
2018-04-22T16:16:49.689Z,28.10
2018-04-22T16:19:20.642Z,27.70
2018-04-22T16:21:50.260Z,27.20
2018-04-22T16:24:19.135Z,26.90
2018-04-22T16:26:47.266Z,26.80
2018-04-22T16:29:15.671Z,26.50
2018-04-22T16:31:43.704Z,26.20
2018-04-22T16:34:11.914Z,26.10
2018-04-22T16:36:40.401Z,25.60
2018-04-22T16:39:09.084Z,25.60
2018-04-22T16:41:37.358Z,25.50
2018-04-22T16:44:05.408Z,25.30
2018-04-22T16:46:33.479Z,25.10
2018-04-22T16:49:01.570Z,24.70
2018-04-22T16:51:29.740Z,24.30
2018-04-22T16:53:57.611Z,24.20
2018-04-22T16:56:25.781Z,24.20
2018-04-22T16:58:54.067Z,24.30
2018-04-22T17:01:23.149Z,24.20
2018-04-22T17:03:51.288Z,24.20
2018-04-22T17:06:19.307Z,24.00
2018-04-22T17:08:47.878Z,23.80
2018-04-22T17:11:15.871Z,23.70
2018-04-22T17:13:44.545Z,23.80
2018-04-22T17:16:12.599Z,23.80
2018-04-22T17:18:40.879Z,23.80
2018-04-22T17:21:09.059Z,23.60
2018-04-22T17:23:38.858Z,23.60
2018-04-22T17:26:08.914Z,23.40
2018-04-22T17:28:37.878Z,23.10
2018-04-22T17:31:06.158Z,23.10
2018-04-22T17:33:34.327Z,23.20
2018-04-22T17:36:02.394Z,23.10
2018-04-22T17:38:30.569Z,23.00
2018-04-22T17:40:58.651Z,22.90
2018-04-22T17:43:26.605Z,22.80
2018-04-22T17:45:54.473Z,22.70
2018-04-22T17:48:23.273Z,22.50
2018-04-22T17:50:51.308Z,22.30
2018-04-22T17:53:19.299Z,22.20
2018-04-22T17:55:48.307Z,22.10
2018-04-22T17:58:17.090Z,21.90
2018-04-22T18:00:45.051Z,21.80
2018-04-22T18:03:16.399Z,21.80
2018-04-22T18:05:45.196Z,21.40
2018-04-22T18:08:13.475Z,21.40
2018-04-22T18:10:41.329Z,21.20
2018-04-22T18:13:09.198Z,21.00
2018-04-22T18:15:37.474Z,20.90
2018-04-22T18:18:05.744Z,20.90
2018-04-22T18:20:33.815Z,20.80
2018-04-22T18:23:02.198Z,20.70
2018-04-22T18:25:30.233Z,20.70
2018-04-22T18:27:58.133Z,20.60
2018-04-22T18:30:26.107Z,20.60
2018-04-22T18:32:54.170Z,20.50
2018-04-22T18:35:22.049Z,20.50
2018-04-22T18:37:50.978Z,20.40
2018-04-22T18:40:19.201Z,20.30
2018-04-22T18:42:47.174Z,20.20
2018-04-22T18:45:15.151Z,20.10
2018-04-22T18:47:44.810Z,19.90
2018-04-22T18:50:13.204Z,19.90
2018-04-22T18:52:41.815Z,19.70
2018-04-22T18:55:11.025Z,19.70
2018-04-22T18:57:39.355Z,19.60
2018-04-22T19:00:07.870Z,19.50
2018-04-22T19:02:36.045Z,19.40
2018-04-22T19:05:04.520Z,19.30
2018-04-22T19:07:35.042Z,19.10
2018-04-22T19:10:03.826Z,19.10
2018-04-22T19:12:31.714Z,19.00
2018-04-22T19:15:01.834Z,18.80
2018-04-22T19:17:30.340Z,18.80
2018-04-22T19:19:59.207Z,18.50
2018-04-22T19:22:27.365Z,18.50
2018-04-22T19:24:55.240Z,18.40
2018-04-22T19:27:23.304Z,18.30
2018-04-22T19:29:51.479Z,18.30
2018-04-22T19:32:20.377Z,18.10
2018-04-22T19:34:48.547Z,18.10
2018-04-22T19:37:16.514Z,18.10
2018-04-22T19:39:45.230Z,18.10
2018-04-22T19:42:14.016Z,17.80
2018-04-22T19:44:42.882Z,17.70
2018-04-22T19:47:10.947Z,17.70
2018-04-22T19:49:38.914Z,17.70
2018-04-22T19:52:06.896Z,17.50
2018-04-22T19:54:34.960Z,17.50
2018-04-22T19:57:03.051Z,17.50
2018-04-22T19:59:31.717Z,17.40
2018-04-22T20:01:59.788Z,17.40
2018-04-22T20:04:27.876Z,17.20
2018-04-22T20:06:56.758Z,17.20
2018-04-22T20:09:26.962Z,17.20
2018-04-22T20:11:55.044Z,17.20
2018-04-22T20:14:23.004Z,17.10
2018-04-22T20:16:50.987Z,17.00
2018-04-22T20:19:18.857Z,17.00
2018-04-22T20:21:47.743Z,16.90
2018-04-22T20:24:15.818Z,16.90
2018-04-22T20:26:43.669Z,16.80
2018-04-22T20:29:11.958Z,16.60
2018-04-22T20:31:40.031Z,16.70
2018-04-22T20:34:08.806Z,16.80
2018-04-22T20:36:36.989Z,16.70
2018-04-22T20:39:05.060Z,16.60
2018-04-22T20:41:37.044Z,16.60
2018-04-22T20:44:04.980Z,16.60
2018-04-22T20:46:33.235Z,16.60
2018-04-22T20:49:02.930Z,16.70
2018-04-22T20:51:31.158Z,16.60
2018-04-22T20:53:59.925Z,16.40
2018-04-22T20:56:29.535Z,16.40
2018-04-22T20:58:57.837Z,16.30
2018-04-22T21:01:26.814Z,16.00
2018-04-22T21:03:55.689Z,16.00
2018-04-22T21:06:23.670Z,15.90
2018-04-22T21:08:52.969Z,15.80
2018-04-22T21:11:21.049Z,15.80
2018-04-22T21:13:49.993Z,15.80
2018-04-22T21:16:18.359Z,15.80
2018-04-22T21:18:46.571Z,15.90
2018-04-22T21:21:14.830Z,15.70
2018-04-22T21:23:43.024Z,15.80
2018-04-22T21:26:11.231Z,15.70
2018-04-22T21:28:40.129Z,15.50
2018-04-22T21:31:08.846Z,15.50
2018-04-22T21:33:36.976Z,15.50
2018-04-22T21:36:06.144Z,15.40
2018-04-22T21:38:34.430Z,15.40
2018-04-22T21:41:02.573Z,15.30
2018-04-22T21:43:30.781Z,15.30
2018-04-22T21:45:59.453Z,15.40
2018-04-22T21:48:27.639Z,15.50
2018-04-22T21:50:55.603Z,15.40
2018-04-22T21:53:23.465Z,15.30
2018-04-22T21:55:51.639Z,15.30
2018-04-22T21:58:19.716Z,15.10
2018-04-22T22:00:47.788Z,15.10
2018-04-22T22:03:15.961Z,15.10
2018-04-22T22:05:43.919Z,15.20
2018-04-22T22:08:12.418Z,15.10
2018-04-22T22:10:40.764Z,15.10
2018-04-22T22:13:08.853Z,14.90
2018-04-22T22:15:37.809Z,14.90
2018-04-22T22:18:06.020Z,14.90
2018-04-22T22:20:34.309Z,14.80
2018-04-22T22:23:03.483Z,14.90
2018-04-22T22:25:31.524Z,14.90
2018-04-22T22:27:59.432Z,14.90
2018-04-22T22:30:27.611Z,15.00
2018-04-22T22:32:55.777Z,15.00
2018-04-22T22:35:23.639Z,14.90
2018-04-22T22:37:51.884Z,14.80
2018-04-22T22:40:20.303Z,14.60
2018-04-22T22:42:48.578Z,14.70
2018-04-22T22:45:19.728Z,14.50
2018-04-22T22:47:47.864Z,14.50
2018-04-22T22:50:17.315Z,14.50
2018-04-22T22:52:46.358Z,14.50
2018-04-22T22:55:15.381Z,14.40
2018-04-22T22:57:43.426Z,14.40
2018-04-22T23:00:11.421Z,14.30
2018-04-22T23:02:39.590Z,14.30
2018-04-22T23:05:07.851Z,14.20
2018-04-22T23:07:36.145Z,14.10
2018-04-22T23:10:04.293Z,14.10
2018-04-22T23:12:32.177Z,14.10
2018-04-22T23:15:00.354Z,14.10
2018-04-22T23:17:28.749Z,14.00
2018-04-22T23:19:58.857Z,14.10
2018-04-22T23:22:26.723Z,14.10
2018-04-22T23:24:54.803Z,14.10
2018-04-22T23:27:23.253Z,14.10
2018-04-22T23:29:51.451Z,14.10
2018-04-22T23:32:19.523Z,14.00
2018-04-22T23:34:47.387Z,13.90
2018-04-22T23:37:15.360Z,13.90
2018-04-22T23:39:43.426Z,13.90
2018-04-22T23:42:12.630Z,13.90
2018-04-22T23:44:40.790Z,13.80
2018-04-22T23:47:08.828Z,13.70
2018-04-22T23:49:36.938Z,13.70
2018-04-22T23:52:05.104Z,13.70
2018-04-22T23:54:33.164Z,13.90
2018-04-22T23:57:01.367Z,13.90
2018-04-22T23:59:31.268Z,13.80
